sensor_id;sensor_type;location;lat;lon;timestamp;P1;durP1;ratioP1;P2;durP2;ratioP2
2259;SDS011;333;48.800;9.530;2023-05-20T00:01:00;7.43;;;6.77;;
2259;SDS011;333;48.800;9.530;2023-05-20T00:03:26;7.50;;;6.33;;
2259;SDS011;333;48.800;9.530;2023-05-20T00:05:54;7.03;;;6.10;;
2259;SDS011;333;48.800;9.530;2023-05-20T00:08:21;6.63;;;6.03;;
2259;SDS011;333;48.800;9.530;2023-05-20T00:10:48;5.93;;;5.33;;
2259;SDS011;333;48.800;9.530;2023-05-20T00:13:16;5.83;;;5.37;;
2259;SDS011;333;48.800;9.530;2023-05-20T00:15:45;6.10;;;5.40;;
2259;SDS011;333;48.800;9.530;2023-05-20T00:18:12;5.73;;;5.13;;
2259;SDS011;333;48.800;9.530;2023-05-20T00:20:39;5.80;;;5.33;;
2259;SDS011;333;48.800;9.530;2023-05-20T00:23:06;5.83;;;5.33;;
2259;SDS011;333;48.800;9.530;2023-05-20T00:25:33;6.10;;;5.60;;
2259;SDS011;333;48.800;9.530;2023-05-20T00:28:00;6.60;;;6.00;;
2259;SDS011;333;48.800;9.530;2023-05-20T00:30:27;7.20;;;6.60;;
2259;SDS011;333;48.800;9.530;2023-05-20T00:32:55;6.30;;;5.80;;
2259;SDS011;333;48.800;9.530;2023-05-20T00:35:22;7.00;;;6.40;;
2259;SDS011;333;48.800;9.530;2023-05-20T00:37:49;6.00;;;5.50;;
2259;SDS011;333;48.800;9.530;2023-05-20T00:40:19;6.97;;;6.40;;
2259;SDS011;333;48.800;9.530;2023-05-20T00:42:47;6.30;;;5.70;;
2259;SDS011;333;48.800;9.530;2023-05-20T00:45:14;8.17;;;5.97;;
2259;SDS011;333;48.800;9.530;2023-05-20T00:47:42;6.03;;;5.43;;
2259;SDS011;333;48.800;9.530;2023-05-20T00:50:10;5.50;;;5.10;;
2259;SDS011;333;48.800;9.530;2023-05-20T00:52:45;6.77;;;5.50;;
2259;SDS011;333;48.800;9.530;2023-05-20T00:55:12;5.87;;;5.00;;
2259;SDS011;333;48.800;9.530;2023-05-20T00:57:39;5.60;;;5.10;;
2259;SDS011;333;48.800;9.530;2023-05-20T01:00:06;5.77;;;4.83;;
2259;SDS011;333;48.800;9.530;2023-05-20T01:02:35;6.27;;;5.67;;
2259;SDS011;333;48.800;9.530;2023-05-20T01:05:02;5.80;;;5.27;;
2259;SDS011;333;48.800;9.530;2023-05-20T01:07:31;6.33;;;5.83;;
2259;SDS011;333;48.800;9.530;2023-05-20T01:09:58;5.10;;;4.70;;
2259;SDS011;333;48.800;9.530;2023-05-20T01:12:26;5.80;;;5.30;;
2259;SDS011;333;48.800;9.530;2023-05-20T01:14:58;5.53;;;5.07;;
2259;SDS011;333;48.800;9.530;2023-05-20T01:17:29;5.90;;;5.40;;
2259;SDS011;333;48.800;9.530;2023-05-20T01:20:02;5.27;;;4.80;;
2259;SDS011;333;48.800;9.530;2023-05-20T01:22:35;6.07;;;5.47;;
2259;SDS011;333;48.800;9.530;2023-05-20T01:25:02;5.97;;;5.47;;
2259;SDS011;333;48.800;9.530;2023-05-20T01:27:30;6.13;;;5.60;;
2259;SDS011;333;48.800;9.530;2023-05-20T01:29:57;8.90;;;6.53;;
2259;SDS011;333;48.800;9.530;2023-05-20T01:32:25;7.37;;;6.57;;
2259;SDS011;333;48.800;9.530;2023-05-20T01:34:57;7.47;;;6.27;;
2259;SDS011;333;48.800;9.530;2023-05-20T01:37:24;6.13;;;5.53;;
2259;SDS011;333;48.800;9.530;2023-05-20T01:39:55;6.33;;;5.93;;
2259;SDS011;333;48.800;9.530;2023-05-20T01:42:23;8.37;;;6.70;;
2259;SDS011;333;48.800;9.530;2023-05-20T01:44:53;6.43;;;5.90;;
2259;SDS011;333;48.800;9.530;2023-05-20T01:47:20;6.53;;;5.90;;
2259;SDS011;333;48.800;9.530;2023-05-20T01:49:47;7.43;;;6.70;;
2259;SDS011;333;48.800;9.530;2023-05-20T01:52:18;6.93;;;6.33;;
2259;SDS011;333;48.800;9.530;2023-05-20T01:54:45;8.07;;;6.63;;
2259;SDS011;333;48.800;9.530;2023-05-20T01:57:18;7.27;;;6.00;;
2259;SDS011;333;48.800;9.530;2023-05-20T01:59:46;7.10;;;5.93;;
2259;SDS011;333;48.800;9.530;2023-05-20T02:02:13;7.30;;;6.17;;
2259;SDS011;333;48.800;9.530;2023-05-20T02:04:41;7.57;;;6.90;;
2259;SDS011;333;48.800;9.530;2023-05-20T02:07:11;7.20;;;6.60;;
2259;SDS011;333;48.800;9.530;2023-05-20T02:09:38;7.47;;;6.87;;
2259;SDS011;333;48.800;9.530;2023-05-20T02:12:06;7.73;;;6.63;;
2259;SDS011;333;48.800;9.530;2023-05-20T02:14:41;7.10;;;6.40;;
2259;SDS011;333;48.800;9.530;2023-05-20T02:17:09;8.10;;;7.40;;
2259;SDS011;333;48.800;9.530;2023-05-20T02:19:36;6.90;;;6.40;;
2259;SDS011;333;48.800;9.530;2023-05-20T02:22:03;8.70;;;8.00;;
2259;SDS011;333;48.800;9.530;2023-05-20T02:24:30;8.70;;;7.90;;
2259;SDS011;333;48.800;9.530;2023-05-20T02:26:58;9.77;;;8.20;;
2259;SDS011;333;48.800;9.530;2023-05-20T02:29:27;12.73;;;7.90;;
2259;SDS011;333;48.800;9.530;2023-05-20T02:31:56;8.07;;;7.37;;
2259;SDS011;333;48.800;9.530;2023-05-20T02:34:23;7.70;;;7.10;;
2259;SDS011;333;48.800;9.530;2023-05-20T02:36:50;7.60;;;7.00;;
2259;SDS011;333;48.800;9.530;2023-05-20T02:39:18;7.87;;;7.17;;
2259;SDS011;333;48.800;9.530;2023-05-20T02:41:45;8.63;;;7.87;;
2259;SDS011;333;48.800;9.530;2023-05-20T02:44:12;7.70;;;7.10;;
2259;SDS011;333;48.800;9.530;2023-05-20T02:46:39;8.03;;;7.30;;
2259;SDS011;333;48.800;9.530;2023-05-20T02:49:08;8.63;;;7.73;;
2259;SDS011;333;48.800;9.530;2023-05-20T02:51:35;9.10;;;8.10;;
2259;SDS011;333;48.800;9.530;2023-05-20T02:54:02;8.53;;;7.83;;
2259;SDS011;333;48.800;9.530;2023-05-20T02:56:29;8.03;;;7.33;;
2259;SDS011;333;48.800;9.530;2023-05-20T02:58:56;8.03;;;7.30;;
2259;SDS011;333;48.800;9.530;2023-05-20T03:01:24;7.70;;;7.03;;
2259;SDS011;333;48.800;9.530;2023-05-20T03:03:51;8.13;;;7.33;;
2259;SDS011;333;48.800;9.530;2023-05-20T03:06:19;7.40;;;6.73;;
2259;SDS011;333;48.800;9.530;2023-05-20T03:08:46;7.77;;;7.13;;
2259;SDS011;333;48.800;9.530;2023-05-20T03:11:13;8.37;;;7.67;;
2259;SDS011;333;48.800;9.530;2023-05-20T03:13:41;7.07;;;6.57;;
2259;SDS011;333;48.800;9.530;2023-05-20T03:16:09;8.07;;;7.33;;
2259;SDS011;333;48.800;9.530;2023-05-20T03:18:37;8.10;;;7.40;;
2259;SDS011;333;48.800;9.530;2023-05-20T03:21:04;9.47;;;8.60;;
2259;SDS011;333;48.800;9.530;2023-05-20T03:23:32;8.37;;;7.57;;
2259;SDS011;333;48.800;9.530;2023-05-20T03:25:59;7.67;;;7.07;;
2259;SDS011;333;48.800;9.530;2023-05-20T03:28:27;7.93;;;7.23;;
2259;SDS011;333;48.800;9.530;2023-05-20T03:30:54;8.10;;;7.50;;
2259;SDS011;333;48.800;9.530;2023-05-20T03:33:21;7.63;;;6.93;;
2259;SDS011;333;48.800;9.530;2023-05-20T03:35:50;8.10;;;7.47;;
2259;SDS011;333;48.800;9.530;2023-05-20T03:38:17;8.03;;;7.37;;
2259;SDS011;333;48.800;9.530;2023-05-20T03:40:45;8.70;;;7.57;;
2259;SDS011;333;48.800;9.530;2023-05-20T03:43:12;8.10;;;7.47;;
2259;SDS011;333;48.800;9.530;2023-05-20T03:45:39;8.50;;;7.70;;
2259;SDS011;333;48.800;9.530;2023-05-20T03:48:06;8.07;;;7.47;;
2259;SDS011;333;48.800;9.530;2023-05-20T03:50:33;8.40;;;7.30;;
2259;SDS011;333;48.800;9.530;2023-05-20T03:53:00;8.63;;;7.77;;
2259;SDS011;333;48.800;9.530;2023-05-20T03:55:27;7.47;;;6.87;;
2259;SDS011;333;48.800;9.530;2023-05-20T03:57:55;7.97;;;7.17;;
2259;SDS011;333;48.800;9.530;2023-05-20T04:00:22;7.50;;;6.40;;
2259;SDS011;333;48.800;9.530;2023-05-20T04:02:50;7.17;;;6.47;;
2259;SDS011;333;48.800;9.530;2023-05-20T04:05:17;7.60;;;7.00;;
2259;SDS011;333;48.800;9.530;2023-05-20T04:07:44;7.97;;;7.17;;
2259;SDS011;333;48.800;9.530;2023-05-20T04:10:11;9.80;;;7.53;;
2259;SDS011;333;48.800;9.530;2023-05-20T04:12:38;8.30;;;7.57;;
2259;SDS011;333;48.800;9.530;2023-05-20T04:15:07;7.20;;;6.70;;
2259;SDS011;333;48.800;9.530;2023-05-20T04:17:36;8.30;;;7.50;;
2259;SDS011;333;48.800;9.530;2023-05-20T04:20:05;8.73;;;8.03;;
2259;SDS011;333;48.800;9.530;2023-05-20T04:22:32;7.53;;;6.83;;
2259;SDS011;333;48.800;9.530;2023-05-20T04:24:59;8.57;;;7.70;;
2259;SDS011;333;48.800;9.530;2023-05-20T04:27:27;8.43;;;7.60;;
2259;SDS011;333;48.800;9.530;2023-05-20T04:29:55;8.60;;;7.80;;
2259;SDS011;333;48.800;9.530;2023-05-20T04:32:25;8.07;;;7.37;;
2259;SDS011;333;48.800;9.530;2023-05-20T04:34:52;7.73;;;7.03;;
2259;SDS011;333;48.800;9.530;2023-05-20T04:37:20;14.73;;;8.93;;
2259;SDS011;333;48.800;9.530;2023-05-20T04:39:47;10.37;;;9.50;;
2259;SDS011;333;48.800;9.530;2023-05-20T04:42:15;9.40;;;7.97;;
2259;SDS011;333;48.800;9.530;2023-05-20T04:44:44;8.87;;;8.17;;
2259;SDS011;333;48.800;9.530;2023-05-20T04:47:13;9.37;;;8.47;;
2259;SDS011;333;48.800;9.530;2023-05-20T04:49:41;8.73;;;7.87;;
2259;SDS011;333;48.800;9.530;2023-05-20T04:52:09;9.63;;;8.10;;
2259;SDS011;333;48.800;9.530;2023-05-20T04:54:36;8.63;;;7.83;;
2259;SDS011;333;48.800;9.530;2023-05-20T04:57:04;9.23;;;8.30;;
2259;SDS011;333;48.800;9.530;2023-05-20T04:59:31;7.80;;;7.20;;
2259;SDS011;333;48.800;9.530;2023-05-20T05:01:58;7.93;;;7.17;;
2259;SDS011;333;48.800;9.530;2023-05-20T05:04:25;8.67;;;7.90;;
2259;SDS011;333;48.800;9.530;2023-05-20T05:06:53;9.83;;;7.07;;
2259;SDS011;333;48.800;9.530;2023-05-20T05:09:20;7.63;;;7.03;;
2259;SDS011;333;48.800;9.530;2023-05-20T05:11:47;7.70;;;7.10;;
2259;SDS011;333;48.800;9.530;2023-05-20T05:14:20;7.20;;;6.60;;
2259;SDS011;333;48.800;9.530;2023-05-20T05:16:47;7.17;;;6.57;;
2259;SDS011;333;48.800;9.530;2023-05-20T05:19:14;6.77;;;6.17;;
2259;SDS011;333;48.800;9.530;2023-05-20T05:21:41;6.93;;;6.33;;
2259;SDS011;333;48.800;9.530;2023-05-20T05:24:10;7.40;;;6.80;;
2259;SDS011;333;48.800;9.530;2023-05-20T05:26:36;8.47;;;7.67;;
2259;SDS011;333;48.800;9.530;2023-05-20T05:29:03;7.03;;;6.43;;
2259;SDS011;333;48.800;9.530;2023-05-20T05:31:30;7.90;;;7.20;;
2259;SDS011;333;48.800;9.530;2023-05-20T05:33:57;7.30;;;6.70;;
2259;SDS011;333;48.800;9.530;2023-05-20T05:36:24;8.10;;;6.90;;
2259;SDS011;333;48.800;9.530;2023-05-20T05:38:51;8.30;;;7.60;;
2259;SDS011;333;48.800;9.530;2023-05-20T05:41:20;7.97;;;7.33;;
2259;SDS011;333;48.800;9.530;2023-05-20T05:43:47;8.43;;;7.63;;
2259;SDS011;333;48.800;9.530;2023-05-20T05:46:14;7.60;;;7.00;;
2259;SDS011;333;48.800;9.530;2023-05-20T05:48:40;8.00;;;7.20;;
2259;SDS011;333;48.800;9.530;2023-05-20T05:51:13;7.00;;;6.40;;
2259;SDS011;333;48.800;9.530;2023-05-20T05:53:40;7.23;;;6.70;;
2259;SDS011;333;48.800;9.530;2023-05-20T05:56:07;6.90;;;6.17;;
2259;SDS011;333;48.800;9.530;2023-05-20T05:58:36;6.90;;;6.30;;
2259;SDS011;333;48.800;9.530;2023-05-20T06:01:03;8.07;;;6.43;;
2259;SDS011;333;48.800;9.530;2023-05-20T06:03:30;7.83;;;7.07;;
2259;SDS011;333;48.800;9.530;2023-05-20T06:05:57;7.47;;;6.77;;
2259;SDS011;333;48.800;9.530;2023-05-20T06:08:24;7.00;;;6.40;;
2259;SDS011;333;48.800;9.530;2023-05-20T06:10:51;7.13;;;6.53;;
2259;SDS011;333;48.800;9.530;2023-05-20T06:13:18;8.23;;;6.30;;
2259;SDS011;333;48.800;9.530;2023-05-20T06:15:49;6.00;;;5.50;;
2259;SDS011;333;48.800;9.530;2023-05-20T06:18:17;7.83;;;7.10;;
2259;SDS011;333;48.800;9.530;2023-05-20T06:20:44;6.43;;;5.90;;
2259;SDS011;333;48.800;9.530;2023-05-20T06:23:11;6.83;;;6.33;;
2259;SDS011;333;48.800;9.530;2023-05-20T06:25:38;7.43;;;6.17;;
2259;SDS011;333;48.800;9.530;2023-05-20T06:28:06;7.23;;;5.63;;
2259;SDS011;333;48.800;9.530;2023-05-20T06:30:33;5.97;;;5.47;;
2259;SDS011;333;48.800;9.530;2023-05-20T06:33:01;6.37;;;5.87;;
2259;SDS011;333;48.800;9.530;2023-05-20T06:35:28;7.30;;;6.70;;
2259;SDS011;333;48.800;9.530;2023-05-20T06:37:55;6.27;;;5.77;;
2259;SDS011;333;48.800;9.530;2023-05-20T06:40:22;7.10;;;6.50;;
2259;SDS011;333;48.800;9.530;2023-05-20T06:42:51;6.73;;;6.13;;
2259;SDS011;333;48.800;9.530;2023-05-20T06:45:18;6.40;;;5.87;;
2259;SDS011;333;48.800;9.530;2023-05-20T06:47:45;7.13;;;6.53;;
2259;SDS011;333;48.800;9.530;2023-05-20T06:50:14;6.87;;;6.17;;
2259;SDS011;333;48.800;9.530;2023-05-20T06:52:41;6.47;;;5.97;;
2259;SDS011;333;48.800;9.530;2023-05-20T06:55:08;7.47;;;6.30;;
2259;SDS011;333;48.800;9.530;2023-05-20T06:57:36;6.23;;;5.73;;
2259;SDS011;333;48.800;9.530;2023-05-20T07:00:03;7.10;;;6.50;;
2259;SDS011;333;48.800;9.530;2023-05-20T07:02:32;6.60;;;6.03;;
2259;SDS011;333;48.800;9.530;2023-05-20T07:04:59;8.10;;;5.97;;
2259;SDS011;333;48.800;9.530;2023-05-20T07:07:27;7.23;;;6.53;;
2259;SDS011;333;48.800;9.530;2023-05-20T07:09:54;7.87;;;7.07;;
2259;SDS011;333;48.800;9.530;2023-05-20T07:12:21;7.50;;;6.80;;
2259;SDS011;333;48.800;9.530;2023-05-20T07:14:51;6.83;;;6.23;;
2259;SDS011;333;48.800;9.530;2023-05-20T07:17:18;8.67;;;7.97;;
2259;SDS011;333;48.800;9.530;2023-05-20T07:19:46;7.40;;;6.70;;
2259;SDS011;333;48.800;9.530;2023-05-20T07:22:13;7.20;;;6.60;;
2259;SDS011;333;48.800;9.530;2023-05-20T07:24:41;8.63;;;8.03;;
2259;SDS011;333;48.800;9.530;2023-05-20T07:27:08;7.87;;;7.27;;
2259;SDS011;333;48.800;9.530;2023-05-20T07:29:35;7.60;;;6.90;;
2259;SDS011;333;48.800;9.530;2023-05-20T07:34:34;8.50;;;7.70;;
2259;SDS011;333;48.800;9.530;2023-05-20T07:37:01;7.53;;;6.90;;
2259;SDS011;333;48.800;9.530;2023-05-20T07:39:28;8.73;;;6.57;;
2259;SDS011;333;48.800;9.530;2023-05-20T07:41:57;8.63;;;7.90;;
2259;SDS011;333;48.800;9.530;2023-05-20T07:44:24;7.47;;;6.77;;
2259;SDS011;333;48.800;9.530;2023-05-20T07:46:51;6.97;;;6.30;;
2259;SDS011;333;48.800;9.530;2023-05-20T07:49:18;6.90;;;6.30;;
2259;SDS011;333;48.800;9.530;2023-05-20T07:51:45;6.53;;;5.93;;
2259;SDS011;333;48.800;9.530;2023-05-20T07:54:12;7.63;;;6.80;;
2259;SDS011;333;48.800;9.530;2023-05-20T07:56:39;7.67;;;6.93;;
2259;SDS011;333;48.800;9.530;2023-05-20T07:59:07;6.37;;;5.90;;
2259;SDS011;333;48.800;9.530;2023-05-20T08:01:35;7.77;;;7.07;;
2259;SDS011;333;48.800;9.530;2023-05-20T08:04:02;8.93;;;8.10;;
2259;SDS011;333;48.800;9.530;2023-05-20T08:06:29;8.13;;;7.30;;
2259;SDS011;333;48.800;9.530;2023-05-20T08:08:58;8.50;;;7.70;;
2259;SDS011;333;48.800;9.530;2023-05-20T08:11:28;6.73;;;6.23;;
2259;SDS011;333;48.800;9.530;2023-05-20T08:13:56;10.70;;;8.10;;
2259;SDS011;333;48.800;9.530;2023-05-20T08:16:24;7.67;;;7.00;;
2259;SDS011;333;48.800;9.530;2023-05-20T08:18:51;7.90;;;6.80;;
2259;SDS011;333;48.800;9.530;2023-05-20T08:21:18;7.43;;;6.80;;
2259;SDS011;333;48.800;9.530;2023-05-20T08:23:45;7.63;;;7.00;;
2259;SDS011;333;48.800;9.530;2023-05-20T08:26:15;7.20;;;6.50;;
2259;SDS011;333;48.800;9.530;2023-05-20T08:28:42;8.10;;;7.43;;
2259;SDS011;333;48.800;9.530;2023-05-20T08:31:09;8.10;;;7.50;;
2259;SDS011;333;48.800;9.530;2023-05-20T08:33:38;6.67;;;6.17;;
2259;SDS011;333;48.800;9.530;2023-05-20T08:36:05;7.43;;;6.77;;
2259;SDS011;333;48.800;9.530;2023-05-20T08:38:33;6.50;;;6.00;;
2259;SDS011;333;48.800;9.530;2023-05-20T08:41:00;6.57;;;6.07;;
2259;SDS011;333;48.800;9.530;2023-05-20T08:43:27;5.40;;;4.97;;
2259;SDS011;333;48.800;9.530;2023-05-20T08:45:56;6.63;;;6.13;;
2259;SDS011;333;48.800;9.530;2023-05-20T08:48:25;6.67;;;6.17;;
2259;SDS011;333;48.800;9.530;2023-05-20T08:50:55;7.00;;;6.37;;
2259;SDS011;333;48.800;9.530;2023-05-20T08:53:23;7.30;;;6.70;;
2259;SDS011;333;48.800;9.530;2023-05-20T08:55:51;7.63;;;6.80;;
2259;SDS011;333;48.800;9.530;2023-05-20T08:58:22;7.40;;;6.70;;
2259;SDS011;333;48.800;9.530;2023-05-20T09:00:49;7.43;;;6.83;;
2259;SDS011;333;48.800;9.530;2023-05-20T09:03:17;7.20;;;6.60;;
2259;SDS011;333;48.800;9.530;2023-05-20T09:05:44;8.63;;;7.83;;
2259;SDS011;333;48.800;9.530;2023-05-20T09:08:13;7.60;;;6.80;;
2259;SDS011;333;48.800;9.530;2023-05-20T09:10:40;9.20;;;7.60;;
2259;SDS011;333;48.800;9.530;2023-05-20T09:13:09;7.40;;;6.70;;
2259;SDS011;333;48.800;9.530;2023-05-20T09:15:36;7.20;;;6.60;;
2259;SDS011;333;48.800;9.530;2023-05-20T09:18:05;8.53;;;7.00;;
2259;SDS011;333;48.800;9.530;2023-05-20T09:20:33;7.10;;;6.50;;
2259;SDS011;333;48.800;9.530;2023-05-20T09:23:02;7.27;;;6.77;;
2259;SDS011;333;48.800;9.530;2023-05-20T09:25:31;6.80;;;6.30;;
2259;SDS011;333;48.800;9.530;2023-05-20T09:27:59;6.87;;;6.27;;
2259;SDS011;333;48.800;9.530;2023-05-20T09:30:26;7.67;;;7.07;;
2259;SDS011;333;48.800;9.530;2023-05-20T09:32:53;6.70;;;6.20;;
2259;SDS011;333;48.800;9.530;2023-05-20T09:35:20;6.80;;;6.20;;
2259;SDS011;333;48.800;9.530;2023-05-20T09:37:50;6.40;;;5.90;;
2259;SDS011;333;48.800;9.530;2023-05-20T09:40:19;7.13;;;6.63;;
2259;SDS011;333;48.800;9.530;2023-05-20T09:42:51;6.53;;;5.93;;
2259;SDS011;333;48.800;9.530;2023-05-20T09:45:20;7.23;;;6.63;;
2259;SDS011;333;48.800;9.530;2023-05-20T09:47:49;6.93;;;6.33;;
2259;SDS011;333;48.800;9.530;2023-05-20T09:50:17;6.77;;;6.17;;
2259;SDS011;333;48.800;9.530;2023-05-20T09:52:49;6.67;;;6.17;;
2259;SDS011;333;48.800;9.530;2023-05-20T09:55:17;6.67;;;6.07;;
2259;SDS011;333;48.800;9.530;2023-05-20T09:57:45;7.60;;;6.90;;
2259;SDS011;333;48.800;9.530;2023-05-20T10:00:14;7.07;;;6.50;;
2259;SDS011;333;48.800;9.530;2023-05-20T10:02:42;7.00;;;6.30;;
2259;SDS011;333;48.800;9.530;2023-05-20T10:05:12;6.57;;;6.07;;
2259;SDS011;333;48.800;9.530;2023-05-20T10:07:50;6.87;;;6.37;;
2259;SDS011;333;48.800;9.530;2023-05-20T10:10:40;6.40;;;5.80;;
2259;SDS011;333;48.800;9.530;2023-05-20T10:13:17;5.80;;;5.30;;
2259;SDS011;333;48.800;9.530;2023-05-20T10:16:00;6.03;;;5.63;;
2259;SDS011;333;48.800;9.530;2023-05-20T10:18:37;6.27;;;5.60;;
2259;SDS011;333;48.800;9.530;2023-05-20T10:21:15;7.20;;;5.40;;
2259;SDS011;333;48.800;9.530;2023-05-20T10:23:43;5.90;;;5.30;;
2259;SDS011;333;48.800;9.530;2023-05-20T10:26:10;6.83;;;5.40;;
2259;SDS011;333;48.800;9.530;2023-05-20T10:28:38;6.67;;;6.00;;
2259;SDS011;333;48.800;9.530;2023-05-20T10:31:15;6.50;;;5.90;;
2259;SDS011;333;48.800;9.530;2023-05-20T10:33:43;6.40;;;5.90;;
2259;SDS011;333;48.800;9.530;2023-05-20T10:36:20;5.80;;;5.40;;
2259;SDS011;333;48.800;9.530;2023-05-20T10:38:52;6.00;;;5.60;;
2259;SDS011;333;48.800;9.530;2023-05-20T10:41:21;6.20;;;5.73;;
2259;SDS011;333;48.800;9.530;2023-05-20T10:43:59;6.73;;;6.10;;
2259;SDS011;333;48.800;9.530;2023-05-20T10:46:28;5.70;;;5.30;;
2259;SDS011;333;48.800;9.530;2023-05-20T10:48:56;5.03;;;4.70;;
2259;SDS011;333;48.800;9.530;2023-05-20T10:51:23;6.43;;;5.93;;
2259;SDS011;333;48.800;9.530;2023-05-20T10:53:53;6.10;;;5.60;;
2259;SDS011;333;48.800;9.530;2023-05-20T10:56:24;6.30;;;5.70;;
2259;SDS011;333;48.800;9.530;2023-05-20T10:58:52;6.37;;;5.80;;
2259;SDS011;333;48.800;9.530;2023-05-20T11:01:22;6.03;;;5.47;;
2259;SDS011;333;48.800;9.530;2023-05-20T11:03:51;6.47;;;5.87;;
2259;SDS011;333;48.800;9.530;2023-05-20T11:06:24;6.03;;;5.57;;
2259;SDS011;333;48.800;9.530;2023-05-20T11:08:52;6.43;;;5.93;;
2259;SDS011;333;48.800;9.530;2023-05-20T11:11:20;6.77;;;6.17;;
2259;SDS011;333;48.800;9.530;2023-05-20T11:13:49;5.50;;;5.10;;
2259;SDS011;333;48.800;9.530;2023-05-20T11:16:17;5.77;;;5.37;;
2259;SDS011;333;48.800;9.530;2023-05-20T11:18:47;5.77;;;5.37;;
2259;SDS011;333;48.800;9.530;2023-05-20T11:21:16;5.33;;;4.93;;
2259;SDS011;333;48.800;9.530;2023-05-20T11:23:44;5.60;;;5.20;;
2259;SDS011;333;48.800;9.530;2023-05-20T11:26:11;6.10;;;5.60;;
2259;SDS011;333;48.800;9.530;2023-05-20T11:28:38;5.23;;;4.83;;
2259;SDS011;333;48.800;9.530;2023-05-20T11:31:06;5.30;;;4.90;;
2259;SDS011;333;48.800;9.530;2023-05-20T11:33:33;5.63;;;5.13;;
2259;SDS011;333;48.800;9.530;2023-05-20T11:36:00;5.40;;;5.00;;
2259;SDS011;333;48.800;9.530;2023-05-20T11:38:29;6.07;;;4.60;;
2259;SDS011;333;48.800;9.530;2023-05-20T11:40:56;5.83;;;5.33;;
2259;SDS011;333;48.800;9.530;2023-05-20T11:43:23;5.57;;;5.07;;
2259;SDS011;333;48.800;9.530;2023-05-20T11:45:53;5.80;;;5.40;;
2259;SDS011;333;48.800;9.530;2023-05-20T11:48:24;5.90;;;5.50;;
2259;SDS011;333;48.800;9.530;2023-05-20T11:50:54;7.77;;;5.03;;
2259;SDS011;333;48.800;9.530;2023-05-20T11:53:22;5.33;;;5.00;;
2259;SDS011;333;48.800;9.530;2023-05-20T11:55:51;5.50;;;5.07;;
2259;SDS011;333;48.800;9.530;2023-05-20T11:58:22;5.90;;;5.50;;
2259;SDS011;333;48.800;9.530;2023-05-20T12:00:50;5.70;;;5.00;;
2259;SDS011;333;48.800;9.530;2023-05-20T12:03:17;4.50;;;4.20;;
2259;SDS011;333;48.800;9.530;2023-05-20T12:05:44;6.40;;;5.23;;
2259;SDS011;333;48.800;9.530;2023-05-20T12:08:12;5.63;;;5.03;;
2259;SDS011;333;48.800;9.530;2023-05-20T12:10:39;5.40;;;4.90;;
2259;SDS011;333;48.800;9.530;2023-05-20T12:13:08;5.37;;;4.97;;
2259;SDS011;333;48.800;9.530;2023-05-20T12:15:37;5.83;;;5.43;;
2259;SDS011;333;48.800;9.530;2023-05-20T12:18:04;5.90;;;5.40;;
2259;SDS011;333;48.800;9.530;2023-05-20T12:20:31;5.17;;;4.80;;
2259;SDS011;333;48.800;9.530;2023-05-20T12:22:59;5.80;;;5.30;;
2259;SDS011;333;48.800;9.530;2023-05-20T12:25:26;5.13;;;4.80;;
2259;SDS011;333;48.800;9.530;2023-05-20T12:27:54;5.20;;;4.80;;
2259;SDS011;333;48.800;9.530;2023-05-20T12:30:22;7.67;;;4.80;;
2259;SDS011;333;48.800;9.530;2023-05-20T12:32:50;5.07;;;4.67;;
2259;SDS011;333;48.800;9.530;2023-05-20T12:35:23;5.00;;;4.60;;
2259;SDS011;333;48.800;9.530;2023-05-20T12:37:52;5.40;;;4.87;;
2259;SDS011;333;48.800;9.530;2023-05-20T12:40:19;5.37;;;4.97;;
2259;SDS011;333;48.800;9.530;2023-05-20T12:42:46;6.10;;;4.90;;
2259;SDS011;333;48.800;9.530;2023-05-20T12:45:13;4.70;;;4.30;;
2259;SDS011;333;48.800;9.530;2023-05-20T12:47:41;4.70;;;4.40;;
2259;SDS011;333;48.800;9.530;2023-05-20T12:50:09;5.17;;;4.87;;
2259;SDS011;333;48.800;9.530;2023-05-20T12:52:37;4.70;;;4.27;;
2259;SDS011;333;48.800;9.530;2023-05-20T12:55:04;5.30;;;4.53;;
2259;SDS011;333;48.800;9.530;2023-05-20T12:57:38;4.73;;;4.43;;
2259;SDS011;333;48.800;9.530;2023-05-20T13:00:05;5.13;;;4.67;;
2259;SDS011;333;48.800;9.530;2023-05-20T13:02:34;5.83;;;5.30;;
2259;SDS011;333;48.800;9.530;2023-05-20T13:05:04;5.17;;;4.80;;
2259;SDS011;333;48.800;9.530;2023-05-20T13:07:31;5.47;;;5.03;;
2259;SDS011;333;48.800;9.530;2023-05-20T13:09:59;5.40;;;5.00;;
2259;SDS011;333;48.800;9.530;2023-05-20T13:12:26;5.40;;;5.00;;
2259;SDS011;333;48.800;9.530;2023-05-20T13:14:53;6.73;;;4.77;;
2259;SDS011;333;48.800;9.530;2023-05-20T13:17:20;7.47;;;5.93;;
2259;SDS011;333;48.800;9.530;2023-05-20T13:19:47;5.50;;;5.10;;
2259;SDS011;333;48.800;9.530;2023-05-20T13:22:15;4.87;;;4.53;;
2259;SDS011;333;48.800;9.530;2023-05-20T13:24:43;4.93;;;4.60;;
2259;SDS011;333;48.800;9.530;2023-05-20T13:27:10;5.03;;;4.73;;
2259;SDS011;333;48.800;9.530;2023-05-20T13:29:37;6.63;;;5.40;;
2259;SDS011;333;48.800;9.530;2023-05-20T13:32:04;4.73;;;4.43;;
2259;SDS011;333;48.800;9.530;2023-05-20T13:34:32;5.30;;;4.90;;
2259;SDS011;333;48.800;9.530;2023-05-20T13:36:59;4.93;;;4.53;;
2259;SDS011;333;48.800;9.530;2023-05-20T13:39:27;4.90;;;4.60;;
2259;SDS011;333;48.800;9.530;2023-05-20T13:41:54;6.30;;;5.27;;
2259;SDS011;333;48.800;9.530;2023-05-20T13:44:22;4.83;;;4.53;;
2259;SDS011;333;48.800;9.530;2023-05-20T13:46:49;5.37;;;4.97;;
2259;SDS011;333;48.800;9.530;2023-05-20T13:49:16;5.33;;;5.00;;
2259;SDS011;333;48.800;9.530;2023-05-20T13:51:43;5.60;;;5.00;;
2259;SDS011;333;48.800;9.530;2023-05-20T13:54:10;5.77;;;5.27;;
2259;SDS011;333;48.800;9.530;2023-05-20T13:56:39;5.83;;;5.30;;
2259;SDS011;333;48.800;9.530;2023-05-20T13:59:06;6.33;;;5.77;;
2259;SDS011;333;48.800;9.530;2023-05-20T14:01:33;5.93;;;5.43;;
2259;SDS011;333;48.800;9.530;2023-05-20T14:04:01;5.20;;;4.80;;
2259;SDS011;333;48.800;9.530;2023-05-20T14:06:28;5.43;;;5.03;;
2259;SDS011;333;48.800;9.530;2023-05-20T14:08:56;4.97;;;4.57;;
2259;SDS011;333;48.800;9.530;2023-05-20T14:11:23;6.93;;;4.80;;
2259;SDS011;333;48.800;9.530;2023-05-20T14:13:51;5.40;;;5.00;;
2259;SDS011;333;48.800;9.530;2023-05-20T14:16:18;4.90;;;4.50;;
2259;SDS011;333;48.800;9.530;2023-05-20T14:18:45;5.23;;;4.73;;
2259;SDS011;333;48.800;9.530;2023-05-20T14:21:12;4.67;;;4.27;;
2259;SDS011;333;48.800;9.530;2023-05-20T14:23:39;4.00;;;3.60;;
2259;SDS011;333;48.800;9.530;2023-05-20T14:26:08;4.83;;;4.53;;
2259;SDS011;333;48.800;9.530;2023-05-20T14:28:36;4.70;;;4.40;;
2259;SDS011;333;48.800;9.530;2023-05-20T14:31:04;4.70;;;4.43;;
2259;SDS011;333;48.800;9.530;2023-05-20T14:33:31;5.23;;;4.73;;
2259;SDS011;333;48.800;9.530;2023-05-20T14:35:58;5.40;;;5.00;;
2259;SDS011;333;48.800;9.530;2023-05-20T14:38:25;5.10;;;4.70;;
2259;SDS011;333;48.800;9.530;2023-05-20T14:40:53;5.30;;;4.90;;
2259;SDS011;333;48.800;9.530;2023-05-20T14:43:20;5.50;;;5.10;;
2259;SDS011;333;48.800;9.530;2023-05-20T14:45:47;5.77;;;5.27;;
2259;SDS011;333;48.800;9.530;2023-05-20T14:48:15;4.73;;;4.33;;
2259;SDS011;333;48.800;9.530;2023-05-20T14:50:42;5.97;;;5.47;;
2259;SDS011;333;48.800;9.530;2023-05-20T14:53:09;5.70;;;5.30;;
2259;SDS011;333;48.800;9.530;2023-05-20T14:55:36;5.50;;;5.10;;
2259;SDS011;333;48.800;9.530;2023-05-20T14:58:03;7.73;;;7.13;;
2259;SDS011;333;48.800;9.530;2023-05-20T15:00:30;6.57;;;6.10;;
2259;SDS011;333;48.800;9.530;2023-05-20T15:02:57;5.73;;;5.33;;
2259;SDS011;333;48.800;9.530;2023-05-20T15:05:26;6.40;;;5.90;;
2259;SDS011;333;48.800;9.530;2023-05-20T15:07:53;5.43;;;4.93;;
2259;SDS011;333;48.800;9.530;2023-05-20T15:10:20;5.13;;;4.83;;
2259;SDS011;333;48.800;9.530;2023-05-20T15:12:47;5.30;;;4.90;;
2259;SDS011;333;48.800;9.530;2023-05-20T15:15:15;6.63;;;5.20;;
2259;SDS011;333;48.800;9.530;2023-05-20T15:17:42;4.87;;;4.57;;
2259;SDS011;333;48.800;9.530;2023-05-20T15:20:09;5.80;;;5.40;;
2259;SDS011;333;48.800;9.530;2023-05-20T15:22:38;5.67;;;5.27;;
2259;SDS011;333;48.800;9.530;2023-05-20T15:25:08;5.40;;;4.97;;
2259;SDS011;333;48.800;9.530;2023-05-20T15:27:35;5.37;;;4.97;;
2259;SDS011;333;48.800;9.530;2023-05-20T15:30:02;6.20;;;5.63;;
2259;SDS011;333;48.800;9.530;2023-05-20T15:32:29;6.27;;;5.67;;
2259;SDS011;333;48.800;9.530;2023-05-20T15:34:56;5.27;;;4.80;;
2259;SDS011;333;48.800;9.530;2023-05-20T15:37:23;5.77;;;5.27;;